Latest Coastal Weather Observations for Cape Flattery

IDQ60701

Issued at 1:35 pm EST Wednesday 17 September 2014 (issued every 10 minutes, with the page automatically refreshed every 10 minutes)

About coastal observations | Map of coastal stations | Coastal observations for QLD | Marine services | Other Formats
Station Details ID: 031213 Name: CAPE FLATTERY Lat: -14.97 Lon: 145.31 Height: 18.5 m
Data from the previous 72 hours. | See also: Recent months at Cape Flattery
Date/Time
EST
Temp

°C
Wind Pressure Rain
since 9am
mm
Weather Cloud Vis
km
Sea
Height
m
Swell
Dir
 
Speed
knots
Gust
knots
hPa Trend Height
m
Period
s
Dir
17/01:30pm 26.8 SE 15 21 1015.0 - 0.0 - - - - - - -
17/01:00pm 27.5 SE 16 21 1015.2 - 0.0 - - - - - - -
17/12:30pm 27.7 SSE 15 20 1015.5 - 0.0 - - - - - - -
17/12:00pm 27.2 SE 16 21 1016.0 - 0.0 - - - - - - -
17/11:30am 27.0 SE 16 21 1016.4 - 0.0 - - - - - - -
17/11:00am 26.9 SE 16 21 1016.6 - 0.0 - - - - - - -
17/10:30am 27.1 SE 15 20 1016.9 - 0.0 - - - - - - -
17/10:00am 26.8 SE 15 21 1017.3 - 0.0 - - - - - - -
17/09:30am 26.4 SE 15 20 1017.1 - 0.0 - - - - - - -
17/09:00am 25.7 SE 15 21 1017.1 - 0.0 - - - - - - -
17/08:30am 25.3 SE 15 20 1016.8 - 0.0 - - - - - - -
17/08:00am 24.8 SE 15 21 1016.5 - 0.0 - - - - - - -
17/07:30am 23.6 SE 13 19 1016.0 - 0.0 - - - - - - -
17/07:00am 23.7 SE 11 15 1015.6 - 0.0 - - - - - - -
17/06:30am 22.5 SE 11 15 1015.1 - 0.0 - - - - - - -
17/06:00am 22.2 SE 11 14 1014.7 - 0.0 - - - - - - -
17/05:30am 22.0 SE 9 12 1014.6 - 0.0 - - - - - - -
17/05:00am 22.1 SE 9 13 1014.3 - 0.0 - - - - - - -
17/04:30am 22.0 SE 9 11 1014.2 - 0.0 - - - - - - -
17/04:00am 22.1 SE 10 14 1014.1 - 0.0 - - - - - - -
17/03:30am 22.5 SE 10 14 1014.2 - 0.0 - - - - - - -
17/03:00am 22.6 SE 11 15 1014.2 - 0.0 - - - - - - -
17/02:30am 22.7 SE 11 13 1014.3 - 0.0 - - - - - - -
17/02:00am 22.8 SE 9 13 1014.6 - 0.0 - - - - - - -
17/01:30am 23.0 SE 10 16 1014.9 - 0.0 - - - - - - -
17/01:00am 23.0 SE 11 15 1015.1 - 0.0 - - - - - - -
17/12:30am 22.9 SE 11 15 1015.4 - 0.0 - - - - - - -
17/12:00am 23.1 ESE 11 14 1015.4 - 0.0 - - - - - - -
 
Date/Time
EST
Temp

°C
Wind Pressure Rain
since 9am
mm
Weather Cloud Vis
km
Sea
Height
m
Swell
Dir
 
Speed
knots
Gust
knots
hPa Trend Height
m
Period
s
Dir
16/11:30pm 23.0 ESE 10 14 1015.7 - 0.0 - - - - - - -
16/11:00pm 23.0 ESE 10 16 1015.7 - 0.0 - - - - - - -
16/10:30pm 23.3 ESE 11 15 1015.7 - 0.0 - - - - - - -
16/10:00pm 23.4 SE 12 19 1015.7 - 0.0 - - - - - - -
16/09:30pm 23.6 SE 12 19 1015.6 - 0.0 - - - - - - -
16/09:00pm 23.5 ESE 12 16 1015.5 - 0.0 - - - - - - -
16/08:30pm 23.5 ESE 11 16 1015.2 - 0.0 - - - - - - -
16/08:00pm 23.6 ESE 11 15 1014.9 - 0.0 - - - - - - -
16/07:30pm 23.7 ESE 11 16 1014.6 - 0.0 - - - - - - -
16/07:00pm 23.8 SE 12 17 1014.1 - 0.0 - - - - - - -
16/06:30pm 23.9 SE 13 18 1013.8 - 0.0 - - - - - - -
16/06:00pm 24.1 SE 13 18 1013.6 - 0.0 - - - - - - -
16/05:30pm 24.8 SE 13 19 1013.4 - 0.0 - - - - - - -
16/05:00pm 25.2 SE 16 20 1013.3 - 0.0 - - - - - - -
16/04:30pm 25.6 SE 15 21 1013.2 - 0.0 - - - - - - -
16/04:00pm 26.5 SE 15 21 1013.1 - 0.0 - - - - - - -
16/03:30pm 26.5 SE 15 21 1013.2 - 0.0 - - - - - - -
16/03:00pm 27.1 SE 15 21 1013.2 - 0.0 - - - - - - -
16/02:30pm 27.0 SE 17 21 1013.3 - 0.0 - - - - - - -
16/02:00pm 27.4 SE 16 21 1013.5 - 0.0 - - - - - - -
16/01:30pm 27.2 SSE 18 23 1013.9 - 0.0 - - - - - - -
16/01:00pm 27.7 SSE 18 23 1014.3 - 0.0 - - - - - - -
16/12:30pm 27.0 SSE 17 24 1014.8 - 0.0 - - - - - - -
16/12:00pm 27.2 SSE 17 23 1015.2 - 0.0 - - - - - - -
16/11:30am 27.1 SSE 17 22 1015.6 - 0.0 - - - - - - -
16/11:00am 27.2 SSE 17 22 1015.9 - 0.0 - - - - - - -
16/10:30am 26.3 SSE 16 21 1016.1 - 0.0 - - - - - - -
16/10:00am 26.8 SE 15 21 1016.3 - 0.0 - - - - - - -
16/09:30am 26.4 SE 15 22 1016.4 - 0.0 - - - - - - -
16/09:00am 25.9 SE 15 21 1016.6 - 0.0 - - - - - - -
16/08:30am 24.7 SE 15 19 1016.6 - 0.0 - - - - - - -
16/08:00am 25.4 SE 13 17 1016.3 - 0.0 - - - - - - -
16/07:30am 24.2 SE 13 18 1015.8 - 0.0 - - - - - - -
16/07:00am 23.2 SE 11 14 1015.3 - 0.0 - - - - - - -
16/06:30am 22.8 SE 13 18 1014.8 - 0.0 - - - - - - -
16/06:00am 22.5 SE 11 14 1014.5 - 0.0 - - - - - - -
16/05:30am 22.7 SE 12 17 1014.3 - 0.0 - - - - - - -
16/05:00am 22.5 SE 12 18 1013.9 - 0.0 - - - - - - -
16/04:30am 22.6 SE 12 16 1013.7 - 0.0 - - - - - - -
16/04:00am 22.7 SE 13 18 1013.7 - 0.0 - - - - - - -
16/03:30am 22.7 SE 14 18 1013.9 - 0.0 - - - - - - -
16/03:00am 22.6 SE 12 16 1013.8 - 0.0 - - - - - - -
16/02:30am 22.8 SE 12 17 1013.9 - 0.0 - - - - - - -
16/02:00am 22.7 SE 14 19 1014.2 - 0.0 - - - - - - -
16/01:30am 22.9 SE 14 20 1014.4 - 0.0 - - - - - - -
16/01:00am 23.0 SE 14 18 1014.6 - 0.0 - - - - - - -
16/12:30am 22.9 SE 15 20 1014.7 - 0.0 - - - - - - -
16/12:00am 23.0 SE 15 21 1014.9 - 0.0 - - - - - - -
 
Date/Time
EST
Temp

°C
Wind Pressure Rain
since 9am
mm
Weather Cloud Vis
km
Sea
Height
m
Swell
Dir
 
Speed
knots
Gust
knots
hPa Trend Height
m
Period
s
Dir
15/11:30pm 23.1 SE 16 22 1015.1 - 0.0 - - - - - - -
15/11:00pm 23.0 SE 15 20 1015.3 - 0.0 - - - - - - -
15/10:30pm 23.0 SE 15 19 1015.1 - 0.0 - - - - - - -
15/10:00pm 23.3 SE 17 23 1014.9 - 0.0 - - - - - - -
15/09:30pm 23.1 SE 15 22 1014.8 - 0.0 - - - - - - -
15/09:00pm 23.2 SE 13 19 1014.7 - 0.0 - - - - - - -
15/08:30pm 23.0 SE 12 17 1014.6 - 0.0 - - - - - - -
15/08:00pm 23.3 SE 14 18 1014.3 - 0.0 - - - - - - -
15/07:30pm 23.2 SE 12 19 1014.0 - 0.0 - - - - - - -
15/07:00pm 23.4 SE 13 18 1013.8 - 0.0 - - - - - - -
15/06:30pm 23.3 SE 14 18 1013.5 - 0.0 - - - - - - -
15/06:00pm 23.7 SE 14 19 1013.3 - 0.0 - - - - - - -
15/05:30pm 24.5 SE 14 18 1013.2 - 0.0 - - - - - - -
15/05:00pm 25.3 SE 13 18 1013.2 - 0.0 - - - - - - -
15/04:30pm 25.3 SE 16 21 1013.0 - 0.0 - - - - - - -
15/04:00pm 26.0 SE 17 22 1012.9 - 0.0 - - - - - - -
15/03:30pm 26.2 SSE 17 22 1012.9 - 0.0 - - - - - - -
15/03:00pm 26.6 SSE 18 23 1013.1 - 0.0 - - - - - - -
15/02:30pm 26.4 SSE 18 23 1013.2 - 0.0 - - - - - - -
15/02:00pm 26.3 SSE 18 24 1013.4 - 0.0 - - - - - - -
15/01:30pm 26.4 SSE 19 25 1013.8 - 0.0 - - - - - - -
15/01:00pm 26.6 SSE 18 23 1014.0 - 0.0 - - - - - - -
15/12:30pm 26.6 SSE 18 24 1014.4 - 0.0 - - - - - - -
15/12:00pm 26.9 SSE 19 25 1014.9 - 0.0 - - - - - - -
15/11:30am 26.8 SSE 19 25 1015.3 - 0.0 - - - - - - -
15/11:00am 26.9 SE 18 23 1015.6 - 0.0 - - - - - - -
15/10:30am 26.5 SSE 18 23 1015.8 - 0.0 - - - - - - -
15/10:00am 26.2 SSE 20 25 1015.9 - 0.0 - - - - - - -
15/09:30am 25.6 SSE 19 25 1015.9 - 0.0 - - - - - - -
15/09:00am 25.2 SE 18 25 1015.9 - 0.0 - - - - - - -
15/08:30am 25.1 SE 18 24 1015.7 - 0.0 - - - - - - -
15/08:00am 24.4 SE 19 26 1015.3 - 0.0 - - - - - - -
15/07:30am 23.8 SE 18 22 1015.0 - 0.0 - - - - - - -
15/07:00am 23.1 SE 17 23 1014.9 - 0.0 - - - - - - -
15/06:30am 22.6 SE 17 22 1014.6 - 0.0 - - - - - - -
15/06:00am 22.5 SE 17 22 1014.4 - 0.0 - - - - - - -
15/05:30am 22.5 SE 17 24 1014.1 - 0.0 - - - - - - -
15/05:00am 22.5 SE 17 24 1013.8 - 0.0 - - - - - - -
15/04:30am 22.5 SE 17 21 1013.8 - 0.0 - - - - - - -
15/04:00am 22.7 SE 17 24 1013.8 - 0.0 - - - - - - -
15/03:30am 22.6 SE 18 25 1013.6 - 0.0 - - - - - - -
15/03:00am 22.6 SE 19 25 1013.7 - 0.0 - - - - - - -
15/02:30am 22.7 SE 18 25 1014.0 - 0.0 - - - - - - -
15/02:00am 22.8 SE 17 23 1014.2 - 0.0 - - - - - - -
15/01:30am 22.9 SE 17 23 1014.5 - 0.0 - - - - - - -
15/01:00am 22.8 SE 15 21 1014.6 - 0.0 - - - - - - -
15/12:30am 22.9 SE 16 22 1014.8 - 0.0 - - - - - - -
15/12:00am 23.0 SE 17 22 1015.1 - 0.0 - - - - - - -
 
Date/Time
EST
Temp

°C
Wind Pressure Rain
since 9am
mm
Weather Cloud Vis
km
Sea
Height
m
Swell
Dir
 
Speed
knots
Gust
knots
hPa Trend Height
m
Period
s
Dir
14/11:30pm 23.0 SE 17 23 1015.4 - 0.0 - - - - - - -
14/11:00pm 22.8 SE 17 24 1015.4 - 0.0 - - - - - - -
14/10:30pm 22.9 SE 17 24 1015.4 - 0.0 - - - - - - -
14/10:00pm 23.0 SE 16 22 1015.4 - 0.0 - - - - - - -
14/09:30pm 23.1 SE 17 24 1015.4 - 0.0 - - - - - - -
14/09:00pm 23.0 SE 17 23 1015.3 - 0.0 - - - - - - -
14/08:30pm 23.3 SE 18 24 1015.3 - 0.0 - - - - - - -
14/08:00pm 23.3 SE 17 24 1015.3 - 0.0 - - - - - - -
14/07:30pm 23.1 SE 16 22 1015.2 - 0.0 - - - - - - -
14/07:00pm 23.2 SE 15 23 1015.1 - 0.0 - - - - - - -
14/06:30pm 23.3 SE 15 21 1014.8 - 0.0 - - - - - - -
14/06:00pm 23.6 SE 17 24 1014.6 - 0.0 - - - - - - -
14/05:30pm 24.3 SE 19 25 1014.5 - 0.0 - - - - - - -
14/05:00pm 24.8 SE 19 25 1014.4 - 0.0 - - - - - - -
14/04:30pm 25.2 SE 20 25 1014.1 - 0.0 - - - - - - -
14/04:00pm 25.5 SE 22 28 1013.8 - 0.0 - - - - - - -
14/03:30pm 25.9 SE 20 27 1013.7 - 0.0 - - - - - - -
14/03:00pm 26.7 SSE 22 29 1013.8 - 0.0 - - - - - - -
14/02:30pm 26.1 SSE 22 28 1014.1 - 0.0 - - - - - - -
14/02:00pm 26.6 SE 23 30 1014.4 - 0.0 - - - - - - -

Other Formats:

Comma delimited format used in spreadsheet applications
http://www.bom.gov.au/fwo/IDQ60701/IDQ60701.94188.axf

JavaScript Object Notation format (JSON) in row-major order
http://www.bom.gov.au/fwo/IDQ60701/IDQ60701.94188.json